sensor_id;sensor_type;location;lat;lon;timestamp;pressure;altitude;pressure_sealevel;temperature;humidity
78411;BME280;67706;51.074;-1.796;2023-06-04T00:00:51;101855.00;;;13.47;73.91
78411;BME280;67706;51.074;-1.796;2023-06-04T00:03:18;101849.50;;;13.47;73.98
78411;BME280;67706;51.074;-1.796;2023-06-04T00:05:44;101855.66;;;13.49;73.89
78411;BME280;67706;51.074;-1.796;2023-06-04T00:08:11;101851.78;;;13.43;74.11
78411;BME280;67706;51.074;-1.796;2023-06-04T00:10:39;101852.94;;;13.34;74.22
78411;BME280;67706;51.074;-1.796;2023-06-04T00:13:06;101860.75;;;13.31;74.47
78411;BME280;67706;51.074;-1.796;2023-06-04T00:15:32;101855.97;;;13.39;73.65
78411;BME280;67706;51.074;-1.796;2023-06-04T00:17:59;101857.00;;;13.38;73.60
78411;BME280;67706;51.074;-1.796;2023-06-04T00:20:26;101858.38;;;13.28;73.67
78411;BME280;67706;51.074;-1.796;2023-06-04T00:22:52;101864.25;;;13.25;73.52
78411;BME280;67706;51.074;-1.796;2023-06-04T00:25:19;101862.53;;;13.24;73.29
78411;BME280;67706;51.074;-1.796;2023-06-04T00:27:47;101860.53;;;13.18;73.59
78411;BME280;67706;51.074;-1.796;2023-06-04T00:30:14;101858.94;;;13.09;73.40
78411;BME280;67706;51.074;-1.796;2023-06-04T00:32:41;101853.31;;;13.02;73.26
78411;BME280;67706;51.074;-1.796;2023-06-04T00:35:08;101855.13;;;13.10;72.67
78411;BME280;67706;51.074;-1.796;2023-06-04T00:37:35;101852.13;;;12.97;72.78
78411;BME280;67706;51.074;-1.796;2023-06-04T00:40:03;101856.31;;;12.93;72.34
78411;BME280;67706;51.074;-1.796;2023-06-04T00:42:30;101859.34;;;12.83;72.68
78411;BME280;67706;51.074;-1.796;2023-06-04T00:44:58;101854.22;;;12.80;72.42
78411;BME280;67706;51.074;-1.796;2023-06-04T00:47:25;101858.88;;;12.80;72.45
78411;BME280;67706;51.074;-1.796;2023-06-04T00:49:56;101857.72;;;12.74;72.40
78411;BME280;67706;51.074;-1.796;2023-06-04T00:52:24;101857.44;;;12.69;72.59
78411;BME280;67706;51.074;-1.796;2023-06-04T00:54:52;101862.25;;;12.52;72.96
78411;BME280;67706;51.074;-1.796;2023-06-04T00:57:20;101859.03;;;12.63;72.56
78411;BME280;67706;51.074;-1.796;2023-06-04T00:59:47;101865.47;;;12.56;72.86
78411;BME280;67706;51.074;-1.796;2023-06-04T01:02:17;101852.00;;;12.61;72.21
78411;BME280;67706;51.074;-1.796;2023-06-04T01:04:51;101847.06;;;12.56;72.40
78411;BME280;67706;51.074;-1.796;2023-06-04T01:07:19;101851.13;;;12.46;72.68
78411;BME280;67706;51.074;-1.796;2023-06-04T01:09:46;101846.00;;;12.57;72.18
78411;BME280;67706;51.074;-1.796;2023-06-04T01:12:13;101838.19;;;12.46;72.60
78411;BME280;67706;51.074;-1.796;2023-06-04T01:14:40;101834.50;;;12.39;72.57
78411;BME280;67706;51.074;-1.796;2023-06-04T01:17:11;101836.75;;;12.36;72.70
78411;BME280;67706;51.074;-1.796;2023-06-04T01:22:36;101833.38;;;12.26;72.47
78411;BME280;67706;51.074;-1.796;2023-06-04T01:25:06;101832.66;;;12.32;72.06
78411;BME280;67706;51.074;-1.796;2023-06-04T01:27:37;101844.66;;;12.16;72.86
78411;BME280;67706;51.074;-1.796;2023-06-04T01:30:07;101839.28;;;12.23;72.50
78411;BME280;67706;51.074;-1.796;2023-06-04T01:32:34;101838.50;;;12.14;72.80
78411;BME280;67706;51.074;-1.796;2023-06-04T01:35:01;101830.31;;;12.06;72.79
78411;BME280;67706;51.074;-1.796;2023-06-04T01:37:28;101830.59;;;12.11;72.36
78411;BME280;67706;51.074;-1.796;2023-06-04T01:39:56;101828.28;;;12.00;72.81
78411;BME280;67706;51.074;-1.796;2023-06-04T01:42:22;101836.56;;;11.92;73.21
78411;BME280;67706;51.074;-1.796;2023-06-04T01:44:49;101835.22;;;11.88;73.04
78411;BME280;67706;51.074;-1.796;2023-06-04T01:47:15;101846.81;;;11.75;73.38
78411;BME280;67706;51.074;-1.796;2023-06-04T01:49:42;101848.88;;;11.73;73.76
78411;BME280;67706;51.074;-1.796;2023-06-04T01:52:09;101839.81;;;11.65;74.05
78411;BME280;67706;51.074;-1.796;2023-06-04T01:54:36;101839.81;;;11.65;73.71
78411;BME280;67706;51.074;-1.796;2023-06-04T01:57:05;101830.19;;;11.69;73.21
78411;BME280;67706;51.074;-1.796;2023-06-04T01:59:33;101835.69;;;11.69;73.04
78411;BME280;67706;51.074;-1.796;2023-06-04T02:02:01;101830.88;;;11.63;73.09
78411;BME280;67706;51.074;-1.796;2023-06-04T02:04:28;101831.97;;;11.54;73.26
78411;BME280;67706;51.074;-1.796;2023-06-04T02:06:55;101817.59;;;11.44;72.88
78411;BME280;67706;51.074;-1.796;2023-06-04T02:09:24;101832.13;;;11.52;72.45
78411;BME280;67706;51.074;-1.796;2023-06-04T02:11:51;101831.69;;;11.41;72.92
78411;BME280;67706;51.074;-1.796;2023-06-04T02:14:19;101831.31;;;11.44;72.13
78411;BME280;67706;51.074;-1.796;2023-06-04T02:16:46;101830.97;;;11.47;71.69
78411;BME280;67706;51.074;-1.796;2023-06-04T02:19:15;101834.44;;;11.41;71.39
78411;BME280;67706;51.074;-1.796;2023-06-04T02:21:44;101836.03;;;11.27;71.72
78411;BME280;67706;51.074;-1.796;2023-06-04T02:24:10;101830.00;;;11.32;71.72
78411;BME280;67706;51.074;-1.796;2023-06-04T02:26:37;101832.66;;;11.17;71.67
78411;BME280;67706;51.074;-1.796;2023-06-04T02:29:04;101834.16;;;11.28;71.65
78411;BME280;67706;51.074;-1.796;2023-06-04T02:31:32;101834.88;;;11.22;71.65
78411;BME280;67706;51.074;-1.796;2023-06-04T02:33:59;101836.22;;;11.26;71.27
78411;BME280;67706;51.074;-1.796;2023-06-04T02:36:26;101838.09;;;11.25;71.17
78411;BME280;67706;51.074;-1.796;2023-06-04T02:38:53;101846.06;;;11.04;71.91
78411;BME280;67706;51.074;-1.796;2023-06-04T02:41:19;101845.75;;;11.07;71.74
78411;BME280;67706;51.074;-1.796;2023-06-04T02:43:46;101833.38;;;11.11;71.61
78411;BME280;67706;51.074;-1.796;2023-06-04T02:46:13;101831.88;;;10.92;72.08
78411;BME280;67706;51.074;-1.796;2023-06-04T02:48:41;101833.59;;;10.93;72.08
78411;BME280;67706;51.074;-1.796;2023-06-04T02:51:08;101833.25;;;10.96;72.05
78411;BME280;67706;51.074;-1.796;2023-06-04T02:53:35;101832.38;;;10.96;72.08
78411;BME280;67706;51.074;-1.796;2023-06-04T02:56:02;101839.78;;;10.87;72.51
78411;BME280;67706;51.074;-1.796;2023-06-04T02:58:29;101843.25;;;10.73;72.72
78411;BME280;67706;51.074;-1.796;2023-06-04T03:00:56;101842.06;;;10.68;73.22
78411;BME280;67706;51.074;-1.796;2023-06-04T03:03:23;101842.06;;;10.68;72.91
78411;BME280;67706;51.074;-1.796;2023-06-04T03:05:51;101844.28;;;10.64;73.06
78411;BME280;67706;51.074;-1.796;2023-06-04T03:08:19;101840.69;;;10.56;73.52
78411;BME280;67706;51.074;-1.796;2023-06-04T03:10:45;101829.59;;;10.49;73.62
78411;BME280;67706;51.074;-1.796;2023-06-04T03:13:12;101847.06;;;10.48;73.65
78411;BME280;67706;51.074;-1.796;2023-06-04T03:15:39;101852.72;;;10.47;73.56
78411;BME280;67706;51.074;-1.796;2023-06-04T03:18:05;101846.72;;;10.51;73.64
78411;BME280;67706;51.074;-1.796;2023-06-04T03:20:32;101839.19;;;10.45;73.47
78411;BME280;67706;51.074;-1.796;2023-06-04T03:23:04;101852.88;;;10.37;73.83
78411;BME280;67706;51.074;-1.796;2023-06-04T03:25:31;101849.13;;;10.22;74.43
78411;BME280;67706;51.074;-1.796;2023-06-04T03:27:58;101845.03;;;10.18;74.44
78411;BME280;67706;51.074;-1.796;2023-06-04T03:30:24;101857.88;;;10.17;74.69
78411;BME280;67706;51.074;-1.796;2023-06-04T03:32:51;101846.38;;;10.14;74.78
78411;BME280;67706;51.074;-1.796;2023-06-04T03:35:18;101858.34;;;10.05;74.72
78411;BME280;67706;51.074;-1.796;2023-06-04T03:37:44;101849.66;;;10.17;74.92
78411;BME280;67706;51.074;-1.796;2023-06-04T03:40:13;101854.06;;;10.02;75.67
78411;BME280;67706;51.074;-1.796;2023-06-04T03:42:40;101852.16;;;9.95;75.93
78411;BME280;67706;51.074;-1.796;2023-06-04T03:45:07;101852.13;;;9.87;76.82
78411;BME280;67706;51.074;-1.796;2023-06-04T03:47:34;101851.59;;;9.75;77.00
78411;BME280;67706;51.074;-1.796;2023-06-04T03:50:01;101857.75;;;9.69;77.64
78411;BME280;67706;51.074;-1.796;2023-06-04T03:52:28;101854.34;;;9.75;77.23
78411;BME280;67706;51.074;-1.796;2023-06-04T03:54:54;101844.25;;;9.84;76.69
78411;BME280;67706;51.074;-1.796;2023-06-04T03:57:23;101850.75;;;9.75;77.17
78411;BME280;67706;51.074;-1.796;2023-06-04T03:59:49;101848.34;;;9.72;76.56
78411;BME280;67706;51.074;-1.796;2023-06-04T04:02:16;101852.28;;;9.77;76.44
78411;BME280;67706;51.074;-1.796;2023-06-04T04:04:43;101851.09;;;9.72;76.36
78411;BME280;67706;51.074;-1.796;2023-06-04T04:07:10;101855.03;;;9.69;76.06
78411;BME280;67706;51.074;-1.796;2023-06-04T04:09:37;101856.41;;;9.73;75.77
78411;BME280;67706;51.074;-1.796;2023-06-04T04:12:04;101851.53;;;9.51;75.94
78411;BME280;67706;51.074;-1.796;2023-06-04T04:14:33;101856.50;;;9.55;76.09
78411;BME280;67706;51.074;-1.796;2023-06-04T04:16:59;101851.91;;;9.64;75.84
78411;BME280;67706;51.074;-1.796;2023-06-04T04:19:26;101852.78;;;9.65;75.64
78411;BME280;67706;51.074;-1.796;2023-06-04T04:21:53;101865.28;;;9.59;75.76
78411;BME280;67706;51.074;-1.796;2023-06-04T04:24:23;101852.19;;;9.45;76.32
78411;BME280;67706;51.074;-1.796;2023-06-04T04:26:51;101855.94;;;9.36;76.81
78411;BME280;67706;51.074;-1.796;2023-06-04T04:29:19;101857.47;;;9.38;76.34
78411;BME280;67706;51.074;-1.796;2023-06-04T04:31:49;101863.00;;;9.46;76.02
78411;BME280;67706;51.074;-1.796;2023-06-04T04:34:16;101856.38;;;9.57;75.71
78411;BME280;67706;51.074;-1.796;2023-06-04T04:36:45;101857.66;;;9.45;75.84
78411;BME280;67706;51.074;-1.796;2023-06-04T04:39:17;101851.00;;;9.47;75.69
78411;BME280;67706;51.074;-1.796;2023-06-04T04:41:44;101856.19;;;9.58;75.44
78411;BME280;67706;51.074;-1.796;2023-06-04T04:44:11;101851.75;;;9.66;75.71
78411;BME280;67706;51.074;-1.796;2023-06-04T04:46:37;101859.69;;;9.93;74.58
78411;BME280;67706;51.074;-1.796;2023-06-04T04:49:05;101855.63;;;10.29;72.80
78411;BME280;67706;51.074;-1.796;2023-06-04T04:51:32;101854.75;;;10.61;71.66
78411;BME280;67706;51.074;-1.796;2023-06-04T04:53:59;101853.56;;;10.71;71.03
78411;BME280;67706;51.074;-1.796;2023-06-04T04:56:26;101857.31;;;10.78;70.71
78411;BME280;67706;51.074;-1.796;2023-06-04T04:58:53;101851.78;;;10.94;69.76
78411;BME280;67706;51.074;-1.796;2023-06-04T05:01:20;101858.19;;;10.63;70.65
78411;BME280;67706;51.074;-1.796;2023-06-04T05:03:48;101860.91;;;10.79;70.57
78411;BME280;67706;51.074;-1.796;2023-06-04T05:06:16;101852.03;;;10.53;70.84
78411;BME280;67706;51.074;-1.796;2023-06-04T05:08:42;101849.78;;;10.56;70.81
78411;BME280;67706;51.074;-1.796;2023-06-04T05:11:09;101854.97;;;10.51;71.41
78411;BME280;67706;51.074;-1.796;2023-06-04T05:13:36;101858.03;;;10.40;71.71
78411;BME280;67706;51.074;-1.796;2023-06-04T05:16:03;101852.75;;;10.38;71.93
78411;BME280;67706;51.074;-1.796;2023-06-04T05:18:31;101859.25;;;10.29;71.83
78411;BME280;67706;51.074;-1.796;2023-06-04T05:20:59;101864.38;;;10.24;72.25
78411;BME280;67706;51.074;-1.796;2023-06-04T05:23:29;101856.00;;;10.26;72.10
78411;BME280;67706;51.074;-1.796;2023-06-04T05:25:57;101859.06;;;10.31;72.16
78411;BME280;67706;51.074;-1.796;2023-06-04T05:28:24;101857.69;;;10.43;71.61
78411;BME280;67706;51.074;-1.796;2023-06-04T05:30:51;101852.88;;;10.37;72.26
78411;BME280;67706;51.074;-1.796;2023-06-04T05:33:24;101852.91;;;10.45;71.61
78411;BME280;67706;51.074;-1.796;2023-06-04T05:35:50;101856.66;;;10.36;71.69
78411;BME280;67706;51.074;-1.796;2023-06-04T05:38:19;101844.69;;;10.45;71.41
78411;BME280;67706;51.074;-1.796;2023-06-04T05:40:53;101849.78;;;10.56;70.95
78411;BME280;67706;51.074;-1.796;2023-06-04T05:43:21;101843.97;;;10.51;70.66
78411;BME280;67706;51.074;-1.796;2023-06-04T05:45:47;101851.00;;;10.62;69.54
78411;BME280;67706;51.074;-1.796;2023-06-04T05:48:15;101853.56;;;10.71;69.81
78411;BME280;67706;51.074;-1.796;2023-06-04T05:50:42;101852.88;;;10.69;69.10
78411;BME280;67706;51.074;-1.796;2023-06-04T05:53:09;101854.72;;;10.93;68.30
78411;BME280;67706;51.074;-1.796;2023-06-04T05:55:36;101852.13;;;10.91;68.00
78411;BME280;67706;51.074;-1.796;2023-06-04T05:58:04;101859.34;;;10.92;68.07
78411;BME280;67706;51.074;-1.796;2023-06-04T06:00:30;101857.94;;;11.04;67.40
78411;BME280;67706;51.074;-1.796;2023-06-04T06:02:57;101841.13;;;11.07;66.68
78411;BME280;67706;51.074;-1.796;2023-06-04T06:05:24;101853.75;;;11.16;67.06
78411;BME280;67706;51.074;-1.796;2023-06-04T06:07:51;101854.75;;;11.32;65.99
78411;BME280;67706;51.074;-1.796;2023-06-04T06:10:17;101858.53;;;11.31;65.71
78411;BME280;67706;51.074;-1.796;2023-06-04T06:12:44;101847.50;;;11.39;65.29
78411;BME280;67706;51.074;-1.796;2023-06-04T06:15:12;101850.56;;;11.44;64.81
78411;BME280;67706;51.074;-1.796;2023-06-04T06:17:39;101847.78;;;11.52;64.85
78411;BME280;67706;51.074;-1.796;2023-06-04T06:20:06;101854.09;;;11.68;63.94
78411;BME280;67706;51.074;-1.796;2023-06-04T06:22:33;101850.09;;;11.71;64.08
78411;BME280;67706;51.074;-1.796;2023-06-04T06:25:01;101855.38;;;11.80;63.42
78411;BME280;67706;51.074;-1.796;2023-06-04T06:27:27;101858.09;;;11.88;62.88
78411;BME280;67706;51.074;-1.796;2023-06-04T06:29:54;101845.13;;;11.97;61.95
78411;BME280;67706;51.074;-1.796;2023-06-04T06:32:22;101848.16;;;12.10;62.13
78411;BME280;67706;51.074;-1.796;2023-06-04T06:34:49;101839.16;;;12.16;62.14
78411;BME280;67706;51.074;-1.796;2023-06-04T06:37:15;101846.00;;;12.20;61.07
78411;BME280;67706;51.074;-1.796;2023-06-04T06:39:42;101845.72;;;12.30;61.02
78411;BME280;67706;51.074;-1.796;2023-06-04T06:42:09;101845.00;;;12.36;61.13
78411;BME280;67706;51.074;-1.796;2023-06-04T06:44:35;101842.66;;;12.47;60.99
78411;BME280;67706;51.074;-1.796;2023-06-04T06:47:02;101842.03;;;12.60;59.66
78411;BME280;67706;51.074;-1.796;2023-06-04T06:49:30;101846.69;;;12.59;58.93
78411;BME280;67706;51.074;-1.796;2023-06-04T06:51:57;101839.63;;;12.57;58.93
78411;BME280;67706;51.074;-1.796;2023-06-04T06:54:23;101842.50;;;12.63;58.92
78411;BME280;67706;51.074;-1.796;2023-06-04T06:56:50;101847.25;;;12.69;59.23
78411;BME280;67706;51.074;-1.796;2023-06-04T06:59:17;101843.41;;;12.78;58.35
78411;BME280;67706;51.074;-1.796;2023-06-04T07:01:43;101849.78;;;12.94;58.02
78411;BME280;67706;51.074;-1.796;2023-06-04T07:04:10;101853.25;;;13.10;57.94
78411;BME280;67706;51.074;-1.796;2023-06-04T07:06:38;101858.44;;;13.05;57.66
78411;BME280;67706;51.074;-1.796;2023-06-04T07:09:05;101851.47;;;12.95;57.32
78411;BME280;67706;51.074;-1.796;2023-06-04T07:11:32;101854.63;;;12.92;57.27
78411;BME280;67706;51.074;-1.796;2023-06-04T07:13:59;101853.25;;;13.10;57.75
78411;BME280;67706;51.074;-1.796;2023-06-04T07:16:27;101864.91;;;13.27;56.25
78411;BME280;67706;51.074;-1.796;2023-06-04T07:18:54;101858.44;;;13.34;55.68
78411;BME280;67706;51.074;-1.796;2023-06-04T07:21:21;101856.34;;;13.36;56.13
78411;BME280;67706;51.074;-1.796;2023-06-04T07:23:50;101855.41;;;13.44;55.54
78411;BME280;67706;51.074;-1.796;2023-06-04T07:26:17;101850.75;;;13.59;56.04
78411;BME280;67706;51.074;-1.796;2023-06-04T07:28:44;101855.47;;;13.65;55.38
78411;BME280;67706;51.074;-1.796;2023-06-04T07:31:14;101852.88;;;13.64;54.95
78411;BME280;67706;51.074;-1.796;2023-06-04T07:33:41;101866.75;;;13.70;54.76
78411;BME280;67706;51.074;-1.796;2023-06-04T07:36:09;101859.81;;;13.74;54.67
78411;BME280;67706;51.074;-1.796;2023-06-04T07:38:36;101853.25;;;13.75;54.56
78411;BME280;67706;51.074;-1.796;2023-06-04T07:41:04;101865.91;;;13.84;54.99
78411;BME280;67706;51.074;-1.796;2023-06-04T07:43:33;101856.63;;;13.92;55.23
78411;BME280;67706;51.074;-1.796;2023-06-04T07:45:59;101855.72;;;14.06;54.99
78411;BME280;67706;51.074;-1.796;2023-06-04T07:48:26;101846.47;;;14.13;53.50
78411;BME280;67706;51.074;-1.796;2023-06-04T07:50:56;101851.47;;;14.24;53.80
78411;BME280;67706;51.074;-1.796;2023-06-04T07:53:22;101855.84;;;14.33;54.01
78411;BME280;67706;51.074;-1.796;2023-06-04T07:55:49;101855.69;;;14.42;54.62
78411;BME280;67706;51.074;-1.796;2023-06-04T07:58:17;101852.56;;;14.45;54.40
78411;BME280;67706;51.074;-1.796;2023-06-04T08:00:44;101852.53;;;14.66;54.12
78411;BME280;67706;51.074;-1.796;2023-06-04T08:03:11;101857.91;;;14.74;53.42
78411;BME280;67706;51.074;-1.796;2023-06-04T08:05:38;101855.34;;;14.72;53.62
78411;BME280;67706;51.074;-1.796;2023-06-04T08:08:05;101865.66;;;14.85;53.55
78411;BME280;67706;51.074;-1.796;2023-06-04T08:10:32;101859.69;;;14.88;52.58
78411;BME280;67706;51.074;-1.796;2023-06-04T08:12:58;101859.31;;;14.91;53.21
78411;BME280;67706;51.074;-1.796;2023-06-04T08:15:26;101867.66;;;15.04;53.77
78411;BME280;67706;51.074;-1.796;2023-06-04T08:17:53;101867.13;;;15.15;52.03
78411;BME280;67706;51.074;-1.796;2023-06-04T08:20:20;101862.84;;;15.12;51.65
78411;BME280;67706;51.074;-1.796;2023-06-04T08:22:47;101864.22;;;15.30;51.94
78411;BME280;67706;51.074;-1.796;2023-06-04T08:25:14;101855.44;;;15.47;52.07
78411;BME280;67706;51.074;-1.796;2023-06-04T08:27:41;101856.72;;;15.51;51.47
78411;BME280;67706;51.074;-1.796;2023-06-04T08:30:08;101863.63;;;15.68;51.66
78411;BME280;67706;51.074;-1.796;2023-06-04T08:32:37;101865.09;;;15.64;51.62
78411;BME280;67706;51.074;-1.796;2023-06-04T08:35:04;101856.81;;;15.71;51.17
78411;BME280;67706;51.074;-1.796;2023-06-04T08:37:31;101860.66;;;15.70;51.08
78411;BME280;67706;51.074;-1.796;2023-06-04T08:39:57;101859.41;;;15.79;51.18
78411;BME280;67706;51.074;-1.796;2023-06-04T08:42:29;101864.91;;;15.72;51.22
78411;BME280;67706;51.074;-1.796;2023-06-04T08:44:57;101856.41;;;15.74;52.07
78411;BME280;67706;51.074;-1.796;2023-06-04T08:47:25;101862.41;;;15.90;51.90
78411;BME280;67706;51.074;-1.796;2023-06-04T08:49:56;101870.56;;;16.12;50.93
78411;BME280;67706;51.074;-1.796;2023-06-04T08:52:25;101862.31;;;16.25;51.01
78411;BME280;67706;51.074;-1.796;2023-06-04T08:54:53;101870.38;;;16.20;50.59
78411;BME280;67706;51.074;-1.796;2023-06-04T08:57:20;101876.53;;;16.15;50.63
78411;BME280;67706;51.074;-1.796;2023-06-04T08:59:47;101861.22;;;16.13;50.20
78411;BME280;67706;51.074;-1.796;2023-06-04T09:02:15;101862.91;;;16.14;50.18
78411;BME280;67706;51.074;-1.796;2023-06-04T09:04:42;101864.66;;;16.41;50.95
78411;BME280;67706;51.074;-1.796;2023-06-04T09:07:12;101867.28;;;16.62;50.53
78411;BME280;67706;51.074;-1.796;2023-06-04T09:09:42;101857.25;;;16.61;50.04
78411;BME280;67706;51.074;-1.796;2023-06-04T09:12:12;101865.34;;;16.49;50.04
78411;BME280;67706;51.074;-1.796;2023-06-04T09:14:42;101863.88;;;16.60;50.38
78411;BME280;67706;51.074;-1.796;2023-06-04T09:17:09;101875.38;;;16.70;50.64
78411;BME280;67706;51.074;-1.796;2023-06-04T09:19:36;101875.16;;;16.85;49.82
78411;BME280;67706;51.074;-1.796;2023-06-04T09:22:02;101861.06;;;16.93;49.49
78411;BME280;67706;51.074;-1.796;2023-06-04T09:24:41;101851.88;;;17.05;49.19
78411;BME280;67706;51.074;-1.796;2023-06-04T09:27:11;101870.41;;;17.24;49.48
78411;BME280;67706;51.074;-1.796;2023-06-04T09:29:38;101866.75;;;17.43;48.65
78411;BME280;67706;51.074;-1.796;2023-06-04T09:32:05;101871.03;;;17.39;48.08
78411;BME280;67706;51.074;-1.796;2023-06-04T09:34:32;101867.84;;;17.29;48.19
78411;BME280;67706;51.074;-1.796;2023-06-04T09:36:58;101869.94;;;17.47;48.03
78411;BME280;67706;51.074;-1.796;2023-06-04T09:39:25;101858.38;;;17.70;47.75
78411;BME280;67706;51.074;-1.796;2023-06-04T09:42:00;101864.56;;;17.65;47.63
78411;BME280;67706;51.074;-1.796;2023-06-04T09:44:28;101865.47;;;17.53;46.95
78411;BME280;67706;51.074;-1.796;2023-06-04T09:46:56;101869.66;;;17.68;47.16
78411;BME280;67706;51.074;-1.796;2023-06-04T09:49:23;101867.72;;;17.82;46.48
78411;BME280;67706;51.074;-1.796;2023-06-04T09:51:51;101861.16;;;17.70;46.84
78411;BME280;67706;51.074;-1.796;2023-06-04T09:54:17;101854.88;;;17.81;47.05
78411;BME280;67706;51.074;-1.796;2023-06-04T09:56:44;101868.19;;;18.10;46.31
78411;BME280;67706;51.074;-1.796;2023-06-04T09:59:13;101864.25;;;18.31;46.52
78411;BME280;67706;51.074;-1.796;2023-06-04T10:01:40;101863.03;;;18.20;46.57
78411;BME280;67706;51.074;-1.796;2023-06-04T10:04:09;101870.72;;;18.18;46.43
78411;BME280;67706;51.074;-1.796;2023-06-04T10:06:38;101868.97;;;18.23;46.17
78411;BME280;67706;51.074;-1.796;2023-06-04T10:09:06;101863.25;;;18.12;45.82
78411;BME280;67706;51.074;-1.796;2023-06-04T10:11:35;101871.59;;;18.12;45.40
78411;BME280;67706;51.074;-1.796;2023-06-04T10:14:04;101874.94;;;18.27;46.04
78411;BME280;67706;51.074;-1.796;2023-06-04T10:16:37;101881.59;;;18.57;46.07
78411;BME280;67706;51.074;-1.796;2023-06-04T10:19:07;101874.94;;;18.58;45.39
78411;BME280;67706;51.074;-1.796;2023-06-04T10:21:34;101873.41;;;18.62;44.76
78411;BME280;67706;51.074;-1.796;2023-06-04T10:24:01;101863.88;;;18.83;44.49
78411;BME280;67706;51.074;-1.796;2023-06-04T10:26:29;101860.13;;;18.95;44.44
78411;BME280;67706;51.074;-1.796;2023-06-04T10:28:57;101873.22;;;18.88;44.37
78411;BME280;67706;51.074;-1.796;2023-06-04T10:31:24;101878.78;;;18.88;42.96
78411;BME280;67706;51.074;-1.796;2023-06-04T10:33:55;101877.81;;;19.01;43.62
78411;BME280;67706;51.074;-1.796;2023-06-04T10:36:23;101877.13;;;19.06;42.97
78411;BME280;67706;51.074;-1.796;2023-06-04T10:38:52;101867.97;;;18.98;43.50
78411;BME280;67706;51.074;-1.796;2023-06-04T10:41:20;101868.31;;;19.09;42.12
78411;BME280;67706;51.074;-1.796;2023-06-04T10:43:48;101856.25;;;19.15;42.60
78411;BME280;67706;51.074;-1.796;2023-06-04T10:46:17;101867.97;;;18.98;42.55
78411;BME280;67706;51.074;-1.796;2023-06-04T10:48:48;101871.28;;;19.14;42.22
78411;BME280;67706;51.074;-1.796;2023-06-04T10:51:28;101862.75;;;19.09;42.17
78411;BME280;67706;51.074;-1.796;2023-06-04T10:53:56;101870.41;;;19.13;42.05
78411;BME280;67706;51.074;-1.796;2023-06-04T10:56:26;101861.81;;;19.15;42.54
78411;BME280;67706;51.074;-1.796;2023-06-04T10:58:53;101859.44;;;19.43;42.78
78411;BME280;67706;51.074;-1.796;2023-06-04T11:01:24;101862.81;;;19.63;41.36
78411;BME280;67706;51.074;-1.796;2023-06-04T11:03:51;101866.69;;;19.80;40.33
78411;BME280;67706;51.074;-1.796;2023-06-04T11:06:19;101860.56;;;19.90;39.48
78411;BME280;67706;51.074;-1.796;2023-06-04T11:08:47;101861.88;;;19.87;39.78
78411;BME280;67706;51.074;-1.796;2023-06-04T11:11:14;101857.06;;;19.94;40.12
78411;BME280;67706;51.074;-1.796;2023-06-04T11:13:42;101863.84;;;20.16;40.06
78411;BME280;67706;51.074;-1.796;2023-06-04T11:16:15;101852.84;;;20.21;40.00
78411;BME280;67706;51.074;-1.796;2023-06-04T11:18:42;101858.75;;;20.43;39.35
78411;BME280;67706;51.074;-1.796;2023-06-04T11:21:09;101851.25;;;20.55;38.85
78411;BME280;67706;51.074;-1.796;2023-06-04T11:23:38;101858.28;;;20.57;37.62
78411;BME280;67706;51.074;-1.796;2023-06-04T11:26:05;101847.66;;;20.54;37.92
78411;BME280;67706;51.074;-1.796;2023-06-04T11:28:32;101864.94;;;20.45;38.03
78411;BME280;67706;51.074;-1.796;2023-06-04T11:30:59;101857.69;;;20.44;37.80
78411;BME280;67706;51.074;-1.796;2023-06-04T11:33:28;101851.25;;;20.55;38.02
78411;BME280;67706;51.074;-1.796;2023-06-04T11:35:55;101860.75;;;20.66;37.46
78411;BME280;67706;51.074;-1.796;2023-06-04T11:38:21;101854.09;;;20.78;37.39
78411;BME280;67706;51.074;-1.796;2023-06-04T11:40:57;101852.91;;;20.86;37.28
78411;BME280;67706;51.074;-1.796;2023-06-04T11:43:24;101853.50;;;20.88;37.21
78411;BME280;67706;51.074;-1.796;2023-06-04T11:45:51;101851.25;;;21.08;37.44
78411;BME280;67706;51.074;-1.796;2023-06-04T11:48:18;101852.06;;;21.20;37.15
78411;BME280;67706;51.074;-1.796;2023-06-04T11:50:44;101856.84;;;21.19;37.60
78411;BME280;67706;51.074;-1.796;2023-06-04T11:53:12;101856.72;;;21.03;36.13
78411;BME280;67706;51.074;-1.796;2023-06-04T11:55:39;101854.97;;;21.02;35.82
78411;BME280;67706;51.074;-1.796;2023-06-04T11:58:07;101856.72;;;21.03;36.36
78411;BME280;67706;51.074;-1.796;2023-06-04T12:00:35;101851.75;;;21.05;36.76
78411;BME280;67706;51.074;-1.796;2023-06-04T12:03:02;101843.84;;;21.13;36.39
78411;BME280;67706;51.074;-1.796;2023-06-04T12:05:29;101855.75;;;21.09;36.36
78411;BME280;67706;51.074;-1.796;2023-06-04T12:08:04;101849.63;;;20.89;36.91
78411;BME280;67706;51.074;-1.796;2023-06-04T12:10:36;101858.63;;;21.14;36.14
78411;BME280;67706;51.074;-1.796;2023-06-04T12:13:04;101847.47;;;21.25;35.43
78411;BME280;67706;51.074;-1.796;2023-06-04T12:15:32;101850.50;;;21.12;35.44
78411;BME280;67706;51.074;-1.796;2023-06-04T12:17:58;101842.59;;;21.32;36.00
78411;BME280;67706;51.074;-1.796;2023-06-04T12:20:33;101838.47;;;21.00;37.18
78411;BME280;67706;51.074;-1.796;2023-06-04T12:23:01;101838.50;;;21.23;37.50
78411;BME280;67706;51.074;-1.796;2023-06-04T12:25:28;101836.88;;;21.51;36.29
78411;BME280;67706;51.074;-1.796;2023-06-04T12:27:55;101834.44;;;21.54;36.59
78411;BME280;67706;51.074;-1.796;2023-06-04T12:30:22;101829.63;;;21.38;35.45
78411;BME280;67706;51.074;-1.796;2023-06-04T12:32:50;101832.03;;;21.34;35.69
78411;BME280;67706;51.074;-1.796;2023-06-04T12:35:17;101831.69;;;21.43;34.95
78411;BME280;67706;51.074;-1.796;2023-06-04T12:37:44;101847.19;;;21.50;35.56
78411;BME280;67706;51.074;-1.796;2023-06-04T12:40:11;101845.81;;;21.64;35.70
78411;BME280;67706;51.074;-1.796;2023-06-04T12:42:38;101824.22;;;21.71;34.86
78411;BME280;67706;51.074;-1.796;2023-06-04T12:45:06;101829.41;;;21.79;36.38